Time;durP1;ratioP1;P1;durP2;ratioP2;P2;SDS_P1;SDS_P2;PMS_P1;PMS_P2;Temp;Humidity;BMP_temperature;BMP_pressure;BME280_temperature;BME280_humidity;BME280_pressure;Samples;Min_cycle;Max_cycle;Signal;HPM_P1;HPM_P2
2023/04/22 00:00:42;;;;;;;;;;;;;;;7.69;100.00;98832.03;5021906;28;19951;-85
2023/04/22 00:03:07;;;;;;;;;;;;;;;7.17;100.00;98839.66;5048760;28;19970;-85
2023/04/22 00:05:32;;;;;;;;;;;;;;;6.89;100.00;98838.19;5033957;28;19967;-88
2023/04/22 00:07:58;;;;;;;;;;;;;;;6.78;100.00;98835.16;5039661;28;19916;-86
2023/04/22 00:10:23;;;;;;;;;;;;;;;6.62;100.00;98841.09;5039200;28;19917;-83
2023/04/22 00:12:48;;;;;;;;;;;;;;;6.45;100.00;98840.94;5050217;28;19921;-86
2023/04/22 00:15:14;;;;;;;;;;;;;;;6.43;100.00;98837.50;5033539;28;19928;-86
2023/04/22 00:17:39;;;;;;;;;;;;;;;6.32;100.00;98836.16;5049429;28;19927;-86
2023/04/22 00:20:06;;;;;;;;;;;;;;;6.20;100.00;98834.03;5049296;28;19979;-85
2023/04/22 00:22:31;;;;;;;;;;;;;;;6.16;100.00;98825.41;5032974;28;19968;-83
2023/04/22 02:25:40;;;;;;;;;;;;;;;8.82;100.00;98840.69;5498109;22;19929;-87
2023/04/22 02:28:08;;;;;;;;;;;;;;;8.84;100.00;98837.94;5025762;28;19946;-85
2023/04/22 02:30:38;;;;;;;;;;;;;;;8.86;100.00;98850.16;5025853;28;20020;-86
2023/04/22 02:33:03;;;;;;;;;;;;;;;8.86;100.00;98851.94;5043450;28;20334;-86
2023/04/22 02:35:29;;;;;;;;;;;;;;;8.88;100.00;98850.09;5025748;28;19924;-83
2023/04/22 02:37:54;;;;;;;;;;;;;;;8.89;100.00;98852.66;5043827;28;19917;-85
2023/04/22 02:40:19;;;;;;;;;;;;;;;8.91;100.00;98849.94;5042719;28;19917;-86
2023/04/22 02:42:54;;;;;;;;;;;;;;;8.89;100.00;98855.28;5043944;28;19921;-87
2023/04/22 02:45:22;;;;;;;;;;;;;;;8.91;100.00;98834.91;5043928;28;19917;-86
2023/04/22 02:47:47;;;;;;;;;;;;;;;8.91;100.00;98837.56;4982085;28;19922;-86
2023/04/22 02:50:12;;;;;;;;;;;;;;;8.94;100.00;98843.66;4981743;28;19971;-88
2023/04/22 02:52:38;;;;;;;;;;;;;;;8.95;100.00;98845.34;4982255;28;20412;-87
2023/04/22 02:55:04;;;;;;;;;;;;;;;7.90;100.00;98839.88;4981303;28;20278;-86
2023/04/22 02:57:29;;;;;;;;;;;;;;;7.29;100.00;98860.16;4982046;28;19918;-89
2023/04/22 02:59:57;;;;;;;;;;;;;;;6.92;100.00;98853.88;4981902;28;19922;-88
2023/04/22 03:02:22;;;;;;;;;;;;;;;6.68;100.00;98845.22;4982400;28;19964;-90
2023/04/22 03:04:48;;;;;;;;;;;;;;;6.49;100.00;98832.84;4982090;28;19950;-87
2023/04/22 03:07:22;;;;;;;;;;;;;;;6.47;100.00;98828.56;4980925;28;19917;-93
2023/04/22 03:09:47;;;;;;;;;;;;;;;6.28;100.00;98837.19;4963840;28;19918;-88
2023/04/22 03:12:12;;;;;;;;;;;;;;;6.25;100.00;98833.84;4982276;28;19933;-89
2023/04/22 03:14:37;;;;;;;;;;;;;;;6.16;100.00;98840.34;4981832;28;19929;-87
2023/04/22 03:17:05;;;;;;;;;;;;;;;6.04;100.00;98835.56;4982055;28;19989;-90
2023/04/22 03:19:31;;;;;;;;;;;;;;;6.03;100.00;98829.44;5031357;28;19917;-88
2023/04/22 03:21:58;;;;;;;;;;;;;;;5.91;100.00;98835.16;5043328;28;19924;-88
2023/04/22 03:24:23;;;;;;;;;;;;;;;5.90;100.00;98834.28;5024332;28;20127;-89
2023/04/22 03:26:48;;;;;;;;;;;;;;;5.88;100.00;98827.38;5042688;28;19925;-89
2023/04/22 03:29:13;;;;;;;;;;;;;;;5.86;100.00;98823.97;5043088;28;20328;-88
2023/04/22 03:31:39;;;;;;;;;;;;;;;6.28;100.00;98818.78;5024802;28;19952;-88
2023/04/22 03:34:05;;;;;;;;;;;;;;;6.80;100.00;98814.91;5042295;28;19923;-88
2023/04/22 03:36:30;;;;;;;;;;;;;;;7.08;100.00;98810.16;5042467;28;20005;-89
2023/04/22 03:38:56;;;;;;;;;;;;;;;7.25;100.00;98804.13;5042287;28;19920;-88
2023/04/22 03:41:22;;;;;;;;;;;;;;;7.40;100.00;98815.78;5041513;28;19920;-88
2023/04/22 03:43:55;;;;;;;;;;;;;;;7.51;100.00;98812.63;5023830;28;19943;-89
2023/04/22 03:46:20;;;;;;;;;;;;;;;7.62;100.00;98806.84;5040153;28;19917;-89
2023/04/22 03:48:46;;;;;;;;;;;;;;;7.69;100.00;98813.56;5041889;28;19996;-92
2023/04/22 03:51:16;;;;;;;;;;;;;;;7.78;100.00;98820.19;5024382;28;19921;-88
2023/04/22 03:53:42;;;;;;;;;;;;;;;7.84;100.00;98803.22;5024294;28;20364;-89
2023/04/22 03:56:15;;;;;;;;;;;;;;;7.91;100.00;98800.22;5023254;28;19929;-89
2023/04/22 07:35:49;;;;;;;;;;;;;;;8.79;100.00;98809.16;5215710;22;19925;-83
2023/04/22 07:38:23;;;;;;;;;;;;;;;8.80;100.00;98808.19;5043094;28;19925;-89
2023/04/22 07:40:48;;;;;;;;;;;;;;;8.83;100.00;98810.69;5042478;28;19928;-83
2023/04/22 07:43:14;;;;;;;;;;;;;;;8.88;100.00;98813.09;5042913;28;19921;-83
2023/04/22 07:45:39;;;;;;;;;;;;;;;8.90;100.00;98812.09;5042562;28;19987;-83
2023/04/22 07:48:04;;;;;;;;;;;;;;;8.94;100.00;98815.44;5042483;28;19920;-83
2023/04/22 07:50:30;;;;;;;;;;;;;;;8.98;100.00;98810.84;5041168;28;19916;-83
2023/04/22 07:52:55;;;;;;;;;;;;;;;8.35;100.00;98822.75;5042819;28;19952;-83
2023/04/22 07:55:20;;;;;;;;;;;;;;;7.27;100.00;98818.09;5041611;28;19921;-84
2023/04/22 07:57:45;;;;;;;;;;;;;;;6.99;100.00;98825.47;5042701;28;19963;-84
2023/04/22 08:00:12;;;;;;;;;;;;;;;6.76;100.00;98823.84;5041509;28;19921;-84
2023/04/22 08:02:37;;;;;;;;;;;;;;;6.60;100.00;98828.91;5042480;28;19924;-84
2023/04/22 08:05:03;;;;;;;;;;;;;;;6.38;100.00;98831.56;5040898;28;20261;-83
2023/04/22 08:07:30;;;;;;;;;;;;;;;6.29;100.00;98831.03;5042116;28;20011;-84
2023/04/22 08:09:56;;;;;;;;;;;;;;;6.30;100.00;98831.88;5041229;28;19917;-87
2023/04/22 08:12:21;;;;;;;;;;;;;;;6.24;100.00;98832.13;5042020;28;19970;-85
2023/04/22 08:14:47;;;;;;;;;;;;;;;6.15;100.00;98828.09;5042553;28;19925;-84
2023/04/22 08:17:12;;;;;;;;;;;;;;;6.11;100.00;98839.66;5042011;28;19960;-84
2023/04/22 08:19:37;;;;;;;;;;;;;;;6.04;100.00;98840.81;5040382;28;20382;-84
2023/04/22 08:22:02;;;;;;;;;;;;;;;5.98;100.00;98829.63;5041874;28;19924;-84
2023/04/22 08:24:28;;;;;;;;;;;;;;;5.91;100.00;98841.25;5042214;28;20053;-85
2023/04/22 08:26:53;;;;;;;;;;;;;;;5.82;100.00;98839.84;5043006;28;19921;-84
2023/04/22 08:29:18;;;;;;;;;;;;;;;5.81;100.00;98848.66;5041702;28;19921;-84
2023/04/22 08:31:44;;;;;;;;;;;;;;;5.75;100.00;98835.72;5041694;28;20326;-83
2023/04/22 08:34:09;;;;;;;;;;;;;;;5.76;100.00;98847.09;5040803;28;20013;-83
2023/04/22 08:36:34;;;;;;;;;;;;;;;5.79;100.00;98846.97;5041622;28;20287;-84
2023/04/22 08:38:59;;;;;;;;;;;;;;;6.57;100.00;98843.03;5041382;28;20020;-82
2023/04/22 08:41:25;;;;;;;;;;;;;;;6.95;100.00;98843.19;5041448;28;19951;-84
2023/04/22 08:43:51;;;;;;;;;;;;;;;7.21;100.00;98833.31;5042082;28;19916;-83
2023/04/22 08:46:18;;;;;;;;;;;;;;;7.44;100.00;98830.50;5041834;28;19987;-83
2023/04/22 08:48:45;;;;;;;;;;;;;;;7.60;100.00;98832.44;5040318;28;20311;-83
2023/04/22 08:51:10;;;;;;;;;;;;;;;7.73;100.00;98836.22;5041225;28;20283;-83
2023/04/22 08:53:36;;;;;;;;;;;;;;;7.84;100.00;98833.09;5041888;28;19923;-83
2023/04/22 08:56:01;;;;;;;;;;;;;;;7.92;100.00;98838.00;5041704;28;19921;-83
2023/04/22 08:58:27;;;;;;;;;;;;;;;8.02;100.00;98838.44;5042140;28;19923;-85
2023/04/22 09:00:53;;;;;;;;;;;;;;;8.07;100.00;98836.41;5042004;28;20348;-84
2023/04/22 09:03:19;;;;;;;;;;;;;;;8.21;100.00;98833.97;5040285;28;20012;-83
2023/04/22 09:05:45;;;;;;;;;;;;;;;8.26;100.00;98833.75;5040159;28;20000;-84
2023/04/22 09:08:11;;;;;;;;;;;;;;;8.35;100.00;98836.78;5041867;28;19928;-86
2023/04/22 09:10:37;;;;;;;;;;;;;;;8.41;100.00;98835.66;5041482;28;19921;-84
2023/04/22 09:13:03;;;;;;;;;;;;;;;8.41;100.00;98827.72;5041306;28;19925;-84
2023/04/22 09:15:31;;;;;;;;;;;;;;;8.43;100.00;98825.03;5041624;28;19921;-87
2023/04/22 09:17:57;;;;;;;;;;;;;;;8.46;100.00;98828.38;5041466;28;20384;-83
2023/04/22 09:20:26;;;;;;;;;;;;;;;8.50;100.00;98824.69;5039904;28;20406;-84
2023/04/22 09:22:55;;;;;;;;;;;;;;;8.52;100.00;98825.44;5041776;28;19923;-86
2023/04/22 09:25:25;;;;;;;;;;;;;;;8.62;100.00;98827.63;5040251;28;19960;-83
2023/04/22 09:27:51;;;;;;;;;;;;;;;8.71;100.00;98832.44;5041858;28;20421;-83
2023/04/22 09:30:18;;;;;;;;;;;;;;;8.72;100.00;98818.31;5023249;28;19979;-82
2023/04/22 09:32:54;;;;;;;;;;;;;;;8.73;100.00;98823.50;5041292;28;19921;-83
2023/04/22 09:35:30;;;;;;;;;;;;;;;8.77;100.00;98826.00;5039147;28;19921;-84
2023/04/22 09:37:55;;;;;;;;;;;;;;;8.79;100.00;98818.84;5040596;28;19921;-83
2023/04/22 09:40:21;;;;;;;;;;;;;;;8.78;100.00;98827.72;5041684;28;20374;-83
2023/04/22 09:42:50;;;;;;;;;;;;;;;8.79;100.00;98832.06;5041173;28;19927;-83
2023/04/22 09:45:26;;;;;;;;;;;;;;;8.80;100.00;98826.69;5044250;28;20376;-83
2023/04/22 09:47:51;;;;;;;;;;;;;;;8.82;100.00;98824.84;5045063;28;19987;-83
2023/04/22 09:50:19;;;;;;;;;;;;;;;8.83;100.00;98825.69;5043545;28;19960;-83
2023/04/22 09:52:44;;;;;;;;;;;;;;;8.84;100.00;98825.63;5043801;28;20295;-83
2023/04/22 09:55:09;;;;;;;;;;;;;;;8.86;100.00;98820.25;5044404;28;19917;-83
2023/04/22 09:57:38;;;;;;;;;;;;;;;8.88;100.00;98824.50;5044414;28;20418;-83
2023/04/22 10:00:03;;;;;;;;;;;;;;;8.92;100.00;98835.78;5045108;28;19917;-83
2023/04/22 10:02:29;;;;;;;;;;;;;;;9.00;100.00;98843.31;5043396;28;20401;-82
2023/04/22 10:04:55;;;;;;;;;;;;;;;8.97;100.00;98840.84;5043517;28;19916;-84
2023/04/22 10:07:21;;;;;;;;;;;;;;;8.98;100.00;98853.94;5044487;28;20000;-83
2023/04/22 10:09:46;;;;;;;;;;;;;;;8.99;100.00;98846.91;5045152;28;20008;-83
2023/04/22 10:12:12;;;;;;;;;;;;;;;9.00;100.00;98848.59;5044488;28;19974;-84
2023/04/22 10:14:37;;;;;;;;;;;;;;;7.91;100.00;98860.03;5044086;28;20056;-83
2023/04/22 10:17:04;;;;;;;;;;;;;;;7.22;100.00;98864.84;5044711;28;19923;-82
2023/04/22 10:19:30;;;;;;;;;;;;;;;7.00;100.00;98864.91;5042784;28;20374;-83
2023/04/22 10:21:57;;;;;;;;;;;;;;;6.79;100.00;98864.06;5043211;28;19917;-83
2023/04/22 10:24:24;;;;;;;;;;;;;;;6.66;100.00;98865.50;5043914;28;19924;-84
2023/04/22 10:26:53;;;;;;;;;;;;;;;6.82;100.00;98871.00;5044034;28;19921;-84
2023/04/22 10:29:19;;;;;;;;;;;;;;;6.49;100.00;98874.09;5044188;28;19920;-82
2023/04/22 10:31:54;;;;;;;;;;;;;;;6.35;100.00;98872.88;5043909;28;19917;-86
2023/04/22 10:34:19;;;;;;;;;;;;;;;6.25;100.00;98874.16;5042440;28;20349;-83
2023/04/22 10:36:52;;;;;;;;;;;;;;;6.20;100.00;98872.63;5044276;28;19964;-83
2023/04/22 10:39:17;;;;;;;;;;;;;;;6.13;100.00;98872.03;5042939;28;19921;-83
2023/04/22 10:41:48;;;;;;;;;;;;;;;6.10;100.00;98869.50;5043884;28;19916;-82
2023/04/22 10:44:14;;;;;;;;;;;;;;;6.01;100.00;98868.09;5043786;28;19932;-83
2023/04/22 10:46:41;;;;;;;;;;;;;;;5.96;100.00;98875.28;5045527;28;19921;-83
2023/04/22 10:49:10;;;;;;;;;;;;;;;5.87;100.00;98875.59;5042517;28;19924;-83
2023/04/22 10:51:46;;;;;;;;;;;;;;;5.92;100.00;98877.16;5034071;28;19916;-82
2023/04/22 10:54:35;;;;;;;;;;;;;;;5.89;100.00;98879.91;5024645;28;19956;-82
2023/04/22 10:57:09;;;;;;;;;;;;;;;5.87;100.00;98879.13;5042307;28;20428;-83
2023/04/22 10:59:41;;;;;;;;;;;;;;;5.78;100.00;98879.47;5025457;28;19917;-85
2023/04/22 11:02:07;;;;;;;;;;;;;;;5.80;100.00;98883.72;5043013;28;19924;-82
2023/04/22 11:04:33;;;;;;;;;;;;;;;5.74;100.00;98881.31;5041404;28;19917;-82
2023/04/22 11:07:17;;;;;;;;;;;;;;;5.74;100.00;98885.72;5023953;28;20352;-83
2023/04/22 11:09:44;;;;;;;;;;;;;;;5.72;100.00;98887.56;5042731;28;19940;-81
2023/04/22 11:12:28;;;;;;;;;;;;;;;6.25;100.00;98892.56;5042119;28;20015;-84
2023/04/22 11:14:54;;;;;;;;;;;;;;;6.82;100.00;98892.06;5042852;28;20380;-83
2023/04/22 11:17:19;;;;;;;;;;;;;;;7.09;100.00;98890.03;5025016;28;19968;-82
2023/04/22 11:19:45;;;;;;;;;;;;;;;7.24;100.00;98886.75;5041769;28;20375;-82
2023/04/22 11:22:11;;;;;;;;;;;;;;;7.37;100.00;98894.97;5042583;28;19920;-81
2023/04/22 11:24:36;;;;;;;;;;;;;;;7.49;100.00;98892.72;5042829;28;19921;-83
2023/04/22 11:27:02;;;;;;;;;;;;;;;7.58;100.00;98898.44;5042920;28;19995;-82
2023/04/22 11:29:27;;;;;;;;;;;;;;;7.68;100.00;98895.38;5042509;28;20371;-81
2023/04/22 11:31:52;;;;;;;;;;;;;;;7.73;100.00;98891.59;5032795;28;19925;-81
2023/04/22 11:34:17;;;;;;;;;;;;;;;7.80;100.00;98892.16;5041597;28;19923;-81
2023/04/22 11:36:44;;;;;;;;;;;;;;;7.87;100.00;98890.13;5042603;28;19924;-80
2023/04/22 11:39:13;;;;;;;;;;;;;;;7.91;100.00;98896.97;5042254;28;20395;-81
2023/04/22 11:41:41;;;;;;;;;;;;;;;7.98;100.00;98895.75;5042629;28;19924;-82
2023/04/22 11:44:07;;;;;;;;;;;;;;;8.01;100.00;98895.63;5043594;28;19921;-83
2023/04/22 11:46:38;;;;;;;;;;;;;;;8.07;100.00;98905.88;5032425;28;19921;-79
2023/04/22 11:49:15;;;;;;;;;;;;;;;8.13;100.00;98907.38;5040394;28;19960;-81
2023/04/22 11:51:52;;;;;;;;;;;;;;;8.18;100.00;98913.28;5042217;28;20320;-83
2023/04/22 11:54:27;;;;;;;;;;;;;;;8.22;100.00;98912.22;5023919;28;20287;-83
2023/04/22 11:56:53;;;;;;;;;;;;;;;8.29;100.00;98907.50;5041319;28;19971;-82
2023/04/22 11:59:18;;;;;;;;;;;;;;;8.33;100.00;98909.09;5042430;28;20275;-82
2023/04/22 12:01:45;;;;;;;;;;;;;;;8.37;100.00;98903.56;5024471;28;19928;-83
2023/04/22 12:04:10;;;;;;;;;;;;;;;8.42;100.00;98911.25;5041030;28;19917;-80
2023/04/22 12:06:39;;;;;;;;;;;;;;;8.45;100.00;98905.03;5041507;28;19928;-84
2023/04/22 12:09:06;;;;;;;;;;;;;;;8.47;100.00;98901.38;5041392;28;19920;-80
2023/04/22 12:11:31;;;;;;;;;;;;;;;8.49;100.00;98902.16;5041861;28;19924;-81
2023/04/22 12:14:04;;;;;;;;;;;;;;;8.57;100.00;98906.19;5042144;28;20283;-82
2023/04/22 12:16:38;;;;;;;;;;;;;;;8.60;100.00;98895.50;5042117;28;19962;-82
2023/04/22 12:19:03;;;;;;;;;;;;;;;8.61;100.00;98900.69;5039510;28;20043;-82
2023/04/22 12:21:28;;;;;;;;;;;;;;;8.64;100.00;98899.72;5042295;28;20037;-83
2023/04/22 12:23:58;;;;;;;;;;;;;;;8.67;100.00;98897.75;5041828;28;19917;-83
2023/04/22 12:26:25;;;;;;;;;;;;;;;8.69;100.00;98895.03;5042085;28;20272;-80
2023/04/22 12:28:51;;;;;;;;;;;;;;;8.73;100.00;98899.25;5041915;28;20372;-80
2023/04/22 12:31:17;;;;;;;;;;;;;;;8.73;100.00;98894.81;5041765;28;19928;-81
2023/04/22 12:33:43;;;;;;;;;;;;;;;8.77;100.00;98889.38;5041287;28;20279;-80
2023/04/22 12:36:08;;;;;;;;;;;;;;;8.79;100.00;98883.13;5041988;28;20010;-82
2023/04/22 12:38:34;;;;;;;;;;;;;;;8.81;100.00;98881.25;5041467;28;20012;-82
2023/04/22 12:40:59;;;;;;;;;;;;;;;8.83;100.00;98881.16;5041814;28;20388;-82
2023/04/22 12:43:24;;;;;;;;;;;;;;;8.83;100.00;98878.53;5042322;28;19917;-81
2023/04/22 12:45:50;;;;;;;;;;;;;;;8.85;100.00;98876.66;5041966;28;19921;-82
2023/04/22 12:48:15;;;;;;;;;;;;;;;8.87;100.00;98874.78;5041669;28;20403;-82
2023/04/22 12:50:40;;;;;;;;;;;;;;;8.89;100.00;98879.06;5039911;28;19924;-82
2023/04/22 12:53:06;;;;;;;;;;;;;;;8.90;100.00;98880.78;5041948;28;20494;-81
2023/04/22 12:55:31;;;;;;;;;;;;;;;8.91;100.00;98884.28;5023418;28;20289;-82
2023/04/22 12:57:57;;;;;;;;;;;;;;;8.94;100.00;98891.19;5041302;28;19921;-82
2023/04/22 13:00:23;;;;;;;;;;;;;;;8.95;100.00;98879.69;5041712;28;19923;-82
2023/04/22 13:02:48;;;;;;;;;;;;;;;8.95;100.00;98883.19;5041965;28;20368;-82
2023/04/22 13:05:15;;;;;;;;;;;;;;;8.68;100.00;98875.72;5040205;28;19917;-82
2023/04/22 13:07:40;;;;;;;;;;;;;;;7.55;100.00;98879.25;5041161;28;20288;-82
2023/04/22 13:10:06;;;;;;;;;;;;;;;7.11;100.00;98876.78;5031824;28;19916;-82
2023/04/22 13:12:32;;;;;;;;;;;;;;;6.90;100.00;98879.41;5041467;28;19917;-82
2023/04/22 13:14:57;;;;;;;;;;;;;;;6.73;100.00;98878.34;5041083;28;20498;-82
2023/04/22 13:17:22;;;;;;;;;;;;;;;6.63;100.00;98873.53;5031385;28;19921;-82
2023/04/22 13:19:49;;;;;;;;;;;;;;;6.52;100.00;98871.34;5025948;28;20035;-82
2023/04/22 13:22:14;;;;;;;;;;;;;;;6.46;100.00;98869.81;5045326;28;19948;-83
2023/04/22 13:24:40;;;;;;;;;;;;;;;6.31;100.00;98862.53;5035014;28;19921;-83
2023/04/22 13:27:08;;;;;;;;;;;;;;;6.21;100.00;98864.69;5045201;28;19917;-82
2023/04/22 13:29:33;;;;;;;;;;;;;;;6.15;100.00;98862.28;5045116;28;19927;-82
2023/04/22 13:31:59;;;;;;;;;;;;;;;6.20;100.00;98862.97;5026621;28;19917;-81
2023/04/22 13:34:24;;;;;;;;;;;;;;;6.07;100.00;98848.59;5043449;28;19924;-82
2023/04/22 13:36:49;;;;;;;;;;;;;;;6.08;100.00;98845.91;5045272;28;20215;-82
2023/04/22 13:39:18;;;;;;;;;;;;;;;6.05;100.00;98847.78;5045137;28;19917;-87
2023/04/22 13:41:44;;;;;;;;;;;;;;;5.97;100.00;98856.84;5044586;28;20007;-82
2023/04/22 13:44:12;;;;;;;;;;;;;;;5.96;100.00;98849.84;5045140;28;20020;-81
2023/04/22 13:46:38;;;;;;;;;;;;;;;5.93;100.00;98860.44;5026685;28;19917;-81
2023/04/22 13:49:03;;;;;;;;;;;;;;;5.79;100.00;98849.59;5043779;28;19921;-82
2023/04/22 13:51:29;;;;;;;;;;;;;;;5.88;100.00;98846.63;5045435;28;19916;-82
2023/04/22 13:53:57;;;;;;;;;;;;;;;5.74;100.00;98846.31;5026796;28;20360;-81
2023/04/22 13:56:26;;;;;;;;;;;;;;;5.78;100.00;98842.66;5044257;28;19917;-82
2023/04/22 13:58:52;;;;;;;;;;;;;;;5.73;100.00;98839.34;5043250;28;19928;-80
2023/04/22 14:01:20;;;;;;;;;;;;;;;5.69;100.00;98835.97;5026440;28;20015;-82
2023/04/22 14:03:46;;;;;;;;;;;;;;;5.71;100.00;98841.16;5044855;28;19917;-82
2023/04/22 14:06:11;;;;;;;;;;;;;;;5.72;100.00;98846.38;5043191;28;19924;-81
2023/04/22 14:08:37;;;;;;;;;;;;;;;5.64;100.00;98832.66;5026532;28;19920;-83
2023/04/22 14:11:03;;;;;;;;;;;;;;;5.68;100.00;98830.75;5045158;28;19917;-84
2023/04/22 14:13:29;;;;;;;;;;;;;;;5.67;100.00;98837.81;5043611;28;19917;-81
2023/04/22 14:15:55;;;;;;;;;;;;;;;5.64;100.00;98837.91;5026047;28;19932;-81
2023/04/22 14:18:23;;;;;;;;;;;;;;;5.92;100.00;98831.59;5044437;28;20010;-80
2023/04/22 14:20:48;;;;;;;;;;;;;;;6.61;100.00;98828.84;5043023;28;20031;-81
2023/04/22 14:23:14;;;;;;;;;;;;;;;6.96;100.00;98826.50;5025937;28;20015;-83
2023/04/22 14:25:39;;;;;;;;;;;;;;;7.18;100.00;98826.41;5045086;28;20007;-79
2023/04/22 14:28:05;;;;;;;;;;;;;;;7.34;100.00;98823.94;5044364;28;19928;-78
2023/04/22 14:30:30;;;;;;;;;;;;;;;7.45;100.00;98824.31;5025974;28;19917;-82
2023/04/22 14:32:56;;;;;;;;;;;;;;;7.56;100.00;98823.84;5044343;28;20327;-82
2023/04/22 14:35:21;;;;;;;;;;;;;;;7.65;100.00;98822.53;5042462;28;20434;-83
2023/04/22 14:37:46;;;;;;;;;;;;;;;7.73;100.00;98815.13;5025908;28;20442;-81
2023/04/22 14:40:12;;;;;;;;;;;;;;;7.82;100.00;98829.69;5043895;28;19956;-81
2023/04/22 14:42:37;;;;;;;;;;;;;;;7.89;100.00;98830.25;5024065;28;19968;-85
2023/04/22 14:45:03;;;;;;;;;;;;;;;7.93;100.00;98834.44;5043885;28;20394;-81
2023/04/22 14:47:28;;;;;;;;;;;;;;;7.99;100.00;98842.06;5044146;28;19922;-81
2023/04/22 14:49:54;;;;;;;;;;;;;;;8.10;100.00;98852.94;5042680;28;19923;-82
2023/04/22 14:52:19;;;;;;;;;;;;;;;8.14;100.00;98851.88;5025423;28;20287;-82
2023/04/22 14:54:46;;;;;;;;;;;;;;;8.25;100.00;98858.41;5040893;28;19921;-82
2023/04/22 14:57:12;;;;;;;;;;;;;;;8.26;100.00;98873.34;5021840;28;20012;-82
2023/04/22 14:59:37;;;;;;;;;;;;;;;8.34;100.00;98877.34;5038945;28;19952;-81
2023/04/22 15:02:04;;;;;;;;;;;;;;;8.36;100.00;98887.81;5041781;28;19948;-79
2023/04/22 15:04:29;;;;;;;;;;;;;;;8.44;100.00;98880.41;5040937;28;19932;-82
2023/04/22 15:06:56;;;;;;;;;;;;;;;8.46;100.00;98886.47;5041457;28;19921;-81
2023/04/22 15:09:21;;;;;;;;;;;;;;;8.50;100.00;98887.16;5042573;28;19983;-82
2023/04/22 15:11:47;;;;;;;;;;;;;;;8.54;100.00;98884.31;5043564;28;19980;-81
2023/04/22 15:14:12;;;;;;;;;;;;;;;8.54;100.00;98886.94;5040668;28;19931;-82
2023/04/22 15:16:37;;;;;;;;;;;;;;;8.53;100.00;98887.88;5024735;28;19928;-82
2023/04/22 15:19:03;;;;;;;;;;;;;;;8.56;100.00;98896.59;5036547;28;20415;-82
2023/04/22 15:21:28;;;;;;;;;;;;;;;8.59;100.00;98899.09;5042652;28;20331;-83
2023/04/22 15:23:53;;;;;;;;;;;;;;;8.62;100.00;98901.56;5042589;28;19921;-83
2023/04/22 15:26:18;;;;;;;;;;;;;;;8.68;100.00;98901.25;5029314;28;19925;-82
2023/04/22 15:28:44;;;;;;;;;;;;;;;8.69;100.00;98900.31;5041991;28;19917;-82
2023/04/22 15:31:09;;;;;;;;;;;;;;;8.69;100.00;98898.53;5042204;28;19921;-84
2023/04/22 15:33:35;;;;;;;;;;;;;;;8.73;100.00;98896.63;5041916;28;19944;-84
2023/04/22 15:36:02;;;;;;;;;;;;;;;8.77;100.00;98903.44;5023451;28;20062;-82
2023/04/22 15:38:29;;;;;;;;;;;;;;;8.79;100.00;98904.25;5041278;28;20207;-83
2023/04/22 15:40:55;;;;;;;;;;;;;;;8.82;100.00;98896.16;5041734;28;20359;-82
2023/04/22 15:43:23;;;;;;;;;;;;;;;8.84;100.00;98899.59;5043117;28;20299;-81
2023/04/22 15:45:48;;;;;;;;;;;;;;;8.86;100.00;98905.63;5041465;28;19936;-81
2023/04/22 15:48:13;;;;;;;;;;;;;;;8.88;100.00;98902.91;5042734;28;19917;-82
2023/04/22 15:50:39;;;;;;;;;;;;;;;8.92;100.00;98909.78;5041438;28;19979;-80
2023/04/22 15:53:05;;;;;;;;;;;;;;;8.91;100.00;98908.91;5041048;28;19925;-82
2023/04/22 15:55:30;;;;;;;;;;;;;;;8.95;100.00;98906.09;5041364;28;20006;-81
2023/04/22 15:57:55;;;;;;;;;;;;;;;8.98;100.00;98909.44;5041573;28;19929;-82
2023/04/22 16:00:21;;;;;;;;;;;;;;;8.62;100.00;98918.25;5040574;28;20011;-82
2023/04/22 16:02:53;;;;;;;;;;;;;;;7.52;100.00;98918.94;5042147;28;20313;-82
2023/04/22 16:05:19;;;;;;;;;;;;;;;7.20;100.00;98921.19;5023198;28;19920;-81
2023/04/22 16:07:45;;;;;;;;;;;;;;;6.97;100.00;98920.38;5024326;28;20272;-81
2023/04/22 16:10:10;;;;;;;;;;;;;;;6.83;100.00;98920.09;5041022;28;19917;-81
2023/04/22 16:12:36;;;;;;;;;;;;;;;6.70;100.00;98914.47;5032218;28;19957;-81
2023/04/22 16:15:01;;;;;;;;;;;;;;;6.63;100.00;98918.28;5041783;28;20443;-80
2023/04/22 16:17:27;;;;;;;;;;;;;;;6.50;100.00;98924.03;5039049;28;19925;-80
2023/04/22 16:19:53;;;;;;;;;;;;;;;6.43;100.00;98933.09;5029971;28;19925;-81
2023/04/22 16:22:18;;;;;;;;;;;;;;;6.35;100.00;98929.88;5041773;28;20414;-81
2023/04/22 16:24:44;;;;;;;;;;;;;;;6.25;100.00;98926.75;5042109;28;19920;-81
2023/04/22 16:27:09;;;;;;;;;;;;;;;6.26;100.00;98939.00;5041904;28;19917;-82
2023/04/22 16:29:34;;;;;;;;;;;;;;;6.20;100.00;98935.78;5041807;28;19917;-82
2023/04/22 16:32:00;;;;;;;;;;;;;;;6.10;100.00;98936.13;5042023;28;19924;-81
2023/04/22 16:34:26;;;;;;;;;;;;;;;6.10;100.00;98935.28;5035038;28;19925;-82
2023/04/22 16:36:51;;;;;;;;;;;;;;;6.01;100.00;98931.19;5035618;28;20381;-81
2023/04/22 16:39:17;;;;;;;;;;;;;;;7.08;100.00;98931.34;5022771;28;19925;-84
2023/04/22 16:41:43;;;;;;;;;;;;;;;6.45;100.00;98938.31;5023376;28;19917;-83
2023/04/22 16:44:08;;;;;;;;;;;;;;;6.18;100.00;98939.31;5041928;28;20666;-81
2023/04/22 16:46:33;;;;;;;;;;;;;;;6.09;100.00;98933.53;5041405;28;19917;-87
2023/04/22 16:48:59;;;;;;;;;;;;;;;6.07;100.00;98930.13;5020256;28;19960;-83
2023/04/22 16:51:24;;;;;;;;;;;;;;;5.99;100.00;98926.00;5038505;28;19925;-82
2023/04/22 16:53:50;;;;;;;;;;;;;;;6.02;100.00;98932.06;5041421;28;19921;-82
2023/04/22 16:56:15;;;;;;;;;;;;;;;5.96;100.00;98928.75;5026125;28;20346;-82
2023/04/22 16:58:40;;;;;;;;;;;;;;;5.96;100.00;98931.38;5046082;28;20359;-84
2023/04/22 17:01:06;;;;;;;;;;;;;;;5.87;100.00;98931.72;5027927;28;20073;-83
2023/04/22 17:03:33;;;;;;;;;;;;;;;5.94;100.00;98943.69;5027810;28;19917;-84
2023/04/22 17:05:59;;;;;;;;;;;;;;;5.87;100.00;98934.34;5034598;28;20382;-82
2023/04/22 17:08:24;;;;;;;;;;;;;;;5.87;100.00;98936.97;5039853;28;19921;-84
2023/04/22 17:10:51;;;;;;;;;;;;;;;5.87;100.00;98930.81;5027162;28;19921;-84
2023/04/22 17:13:16;;;;;;;;;;;;;;;5.85;100.00;98933.50;5045876;28;20020;-85
2023/04/22 17:15:41;;;;;;;;;;;;;;;5.82;100.00;98933.63;5045295;28;20015;-83
2023/04/22 17:18:09;;;;;;;;;;;;;;;5.78;100.00;98935.50;5035240;28;20048;-84
2023/04/22 17:20:35;;;;;;;;;;;;;;;5.78;100.00;98930.25;5034149;28;19917;-82
2023/04/22 17:23:00;;;;;;;;;;;;;;;5.79;100.00;98933.72;5044957;28;19932;-83
2023/04/22 17:25:28;;;;;;;;;;;;;;;5.78;100.00;98930.25;5045794;28;19917;-83
2023/04/22 17:27:54;;;;;;;;;;;;;;;5.73;100.00;98926.09;5045173;28;19925;-84
2023/04/22 17:30:19;;;;;;;;;;;;;;;5.74;100.00;98933.06;5045392;28;19921;-83
2023/04/22 17:32:45;;;;;;;;;;;;;;;5.72;100.00;98927.00;5035898;28;19924;-82
2023/04/22 17:35:12;;;;;;;;;;;;;;;5.71;100.00;98928.78;5044112;28;19982;-84
2023/04/22 17:37:38;;;;;;;;;;;;;;;6.15;100.00;98935.94;5044344;28;19924;-84
2023/04/22 17:40:07;;;;;;;;;;;;;;;6.70;100.00;98925.88;5035649;28;19914;-84
2023/04/22 17:42:34;;;;;;;;;;;;;;;6.99;100.00;98931.72;5046337;28;20368;-83
2023/04/22 17:45:00;;;;;;;;;;;;;;;7.18;100.00;98936.19;5026106;28;19999;-82
2023/04/22 17:47:25;;;;;;;;;;;;;;;7.29;100.00;98939.22;5045028;28;19924;-82
2023/04/22 17:49:50;;;;;;;;;;;;;;;7.38;100.00;98932.72;5044421;28;19928;-80
2023/04/22 17:52:16;;;;;;;;;;;;;;;7.42;100.00;98932.50;5044152;28;19917;-82
2023/04/22 17:54:42;;;;;;;;;;;;;;;7.47;100.00;98932.31;5046416;28;19921;-83
2023/04/22 17:57:09;;;;;;;;;;;;;;;7.50;100.00;98936.59;5044195;28;19920;-84
2023/04/22 17:59:34;;;;;;;;;;;;;;;7.52;100.00;98940.03;5026675;28;19917;-85
2023/04/22 18:02:00;;;;;;;;;;;;;;;7.55;100.00;98939.91;5045226;28;20383;-84
2023/04/22 18:04:29;;;;;;;;;;;;;;;7.55;100.00;98940.75;5042331;28;20019;-85
2023/04/22 18:06:54;;;;;;;;;;;;;;;7.56;100.00;98941.59;5044760;28;19928;-85
2023/04/22 18:09:22;;;;;;;;;;;;;;;7.55;100.00;98939.91;5044779;28;19917;-87
2023/04/22 18:11:48;;;;;;;;;;;;;;;7.53;100.00;98937.31;5043831;28;19943;-84
2023/04/22 18:14:13;;;;;;;;;;;;;;;7.55;100.00;98937.25;5044059;28;20427;-82
2023/04/22 18:16:38;;;;;;;;;;;;;;;7.52;100.00;98937.41;5044115;28;19917;-84
2023/04/22 18:19:05;;;;;;;;;;;;;;;7.45;100.00;98934.13;5042920;28;19928;-82
2023/04/22 18:21:31;;;;;;;;;;;;;;;7.32;100.00;98941.72;5032883;28;19967;-84